sensor_id;sensor_type;location;lat;lon;timestamp;pressure;altitude;pressure_sealevel;temperature;humidity
38616;BME280;24370;51.986;4.666;2023-04-16T00:01:31;102373.91;;;15.07;57.33
38616;BME280;24370;51.986;4.666;2023-04-16T00:03:56;102372.97;;;15.28;56.55
38616;BME280;24370;51.986;4.666;2023-04-16T00:06:22;102378.41;;;14.82;58.33
38616;BME280;24370;51.986;4.666;2023-04-16T00:08:47;102378.44;;;14.57;60.28
38616;BME280;24370;51.986;4.666;2023-04-16T00:11:13;102373.03;;;15.16;58.79
38616;BME280;24370;51.986;4.666;2023-04-16T00:13:38;102378.47;;;14.54;60.72
38616;BME280;24370;51.986;4.666;2023-04-16T00:16:03;102377.47;;;15.06;60.64
38616;BME280;24370;51.986;4.666;2023-04-16T00:18:29;102376.72;;;14.28;62.49
38616;BME280;24370;51.986;4.666;2023-04-16T00:20:55;102374.97;;;14.39;61.61
38616;BME280;24370;51.986;4.666;2023-04-16T00:23:20;102373.13;;;14.86;61.99
38616;BME280;24370;51.986;4.666;2023-04-16T00:25:46;102370.38;;;15.19;60.82
38616;BME280;24370;51.986;4.666;2023-04-16T00:28:11;102373.16;;;14.72;61.64
38616;BME280;24370;51.986;4.666;2023-04-16T00:30:36;102378.44;;;14.69;59.94
38616;BME280;24370;51.986;4.666;2023-04-16T00:33:02;102375.84;;;14.21;63.76
38616;BME280;24370;51.986;4.666;2023-04-16T00:35:29;102380.03;;;13.06;71.08
38616;BME280;24370;51.986;4.666;2023-04-16T00:37:54;102382.00;;;14.03;69.57
38616;BME280;24370;51.986;4.666;2023-04-16T00:40:20;102375.00;;;13.96;70.18
38616;BME280;24370;51.986;4.666;2023-04-16T00:42:45;102375.84;;;14.63;66.26
38616;BME280;24370;51.986;4.666;2023-04-16T00:45:11;102382.81;;;13.48;70.48
38616;BME280;24370;51.986;4.666;2023-04-16T00:47:37;102369.75;;;14.08;70.79
38616;BME280;24370;51.986;4.666;2023-04-16T00:50:04;102355.63;;;14.74;65.24
38616;BME280;24370;51.986;4.666;2023-04-16T00:52:31;102371.47;;;13.91;70.63
38616;BME280;24370;51.986;4.666;2023-04-16T00:54:57;102371.47;;;13.60;69.77
38616;BME280;24370;51.986;4.666;2023-04-16T00:57:23;102371.44;;;14.68;64.90
38616;BME280;24370;51.986;4.666;2023-04-16T00:59:49;102374.13;;;14.13;66.35
38616;BME280;24370;51.986;4.666;2023-04-16T01:02:15;102367.88;;;14.82;64.34
38616;BME280;24370;51.986;4.666;2023-04-16T01:04:41;102367.03;;;14.80;65.47
38616;BME280;24370;51.986;4.666;2023-04-16T01:07:06;102380.22;;;13.56;69.34
38616;BME280;24370;51.986;4.666;2023-04-16T01:09:34;102382.00;;;13.97;71.73
38616;BME280;24370;51.986;4.666;2023-04-16T01:11:59;102366.84;;;15.15;65.26
38616;BME280;24370;51.986;4.666;2023-04-16T01:14:26;102374.09;;;13.83;68.74
38616;BME280;24370;51.986;4.666;2023-04-16T01:16:51;102367.97;;;14.32;66.99
38616;BME280;24370;51.986;4.666;2023-04-16T01:19:17;102371.44;;;14.43;66.67
38616;BME280;24370;51.986;4.666;2023-04-16T01:21:42;102367.97;;;14.29;67.48
38616;BME280;24370;51.986;4.666;2023-04-16T01:24:07;102372.34;;;14.32;68.22
38616;BME280;24370;51.986;4.666;2023-04-16T01:26:33;102378.50;;;14.07;66.54
38616;BME280;24370;51.986;4.666;2023-04-16T01:28:59;102371.31;;;15.02;63.80
38616;BME280;24370;51.986;4.666;2023-04-16T01:31:24;102366.13;;;14.81;64.64
38616;BME280;24370;51.986;4.666;2023-04-16T01:33:50;102388.13;;;13.74;69.42
38616;BME280;24370;51.986;4.666;2023-04-16T01:36:15;102382.00;;;13.97;68.43
38616;BME280;24370;51.986;4.666;2023-04-16T01:38:41;102382.84;;;13.73;70.44
38616;BME280;24370;51.986;4.666;2023-04-16T01:41:06;102384.66;;;14.10;68.01
38616;BME280;24370;51.986;4.666;2023-04-16T01:43:32;102387.16;;;13.38;69.37
38616;BME280;24370;51.986;4.666;2023-04-16T01:46:19;102376.72;;;14.40;68.74
38616;BME280;24370;51.986;4.666;2023-04-16T01:48:45;102370.59;;;14.43;67.84
38616;BME280;24370;51.986;4.666;2023-04-16T01:51:11;102388.97;;;13.58;71.43
38616;BME280;24370;51.986;4.666;2023-04-16T01:53:37;102374.97;;;14.33;68.19
38616;BME280;24370;51.986;4.666;2023-04-16T01:56:03;102381.09;;;14.34;67.97
38616;BME280;24370;51.986;4.666;2023-04-16T01:58:29;102389.81;;;13.57;70.41
38616;BME280;24370;51.986;4.666;2023-04-16T02:00:55;102380.03;;;15.17;62.83
38616;BME280;24370;51.986;4.666;2023-04-16T02:03:21;102388.16;;;13.93;67.45
38616;BME280;24370;51.986;4.666;2023-04-16T02:05:49;102392.50;;;13.82;70.09
38616;BME280;24370;51.986;4.666;2023-04-16T02:08:14;102383.66;;;13.46;68.26
38616;BME280;24370;51.986;4.666;2023-04-16T02:10:40;102378.38;;;14.91;66.40
38616;BME280;24370;51.986;4.666;2023-04-16T02:13:05;102390.75;;;14.15;67.17
38616;BME280;24370;51.986;4.666;2023-04-16T02:15:30;102393.41;;;14.18;68.96
38616;BME280;24370;51.986;4.666;2023-04-16T02:17:56;102389.91;;;14.23;67.55
38616;BME280;24370;51.986;4.666;2023-04-16T02:20:21;102394.22;;;13.73;69.42
38616;BME280;24370;51.986;4.666;2023-04-16T02:22:47;102389.88;;;14.39;70.27
38616;BME280;24370;51.986;4.666;2023-04-16T02:25:13;102390.78;;;14.12;71.33
38616;BME280;24370;51.986;4.666;2023-04-16T02:27:38;102394.28;;;13.92;69.67
38616;BME280;24370;51.986;4.666;2023-04-16T02:30:04;102392.47;;;14.53;65.95
38616;BME280;24370;51.986;4.666;2023-04-16T02:32:30;102403.78;;;13.42;71.33
38616;BME280;24370;51.986;4.666;2023-04-16T02:34:55;102408.31;;;14.34;70.19
38616;BME280;24370;51.986;4.666;2023-04-16T02:37:21;102405.66;;;14.36;69.33
38616;BME280;24370;51.986;4.666;2023-04-16T02:39:47;102408.19;;;13.46;71.30
38616;BME280;24370;51.986;4.666;2023-04-16T02:42:14;102405.59;;;13.55;73.53
38616;BME280;24370;51.986;4.666;2023-04-16T02:44:40;102398.63;;;14.50;69.06
38616;BME280;24370;51.986;4.666;2023-04-16T02:47:06;102396.75;;;15.06;64.74
38616;BME280;24370;51.986;4.666;2023-04-16T02:49:31;102415.31;;;14.45;66.40
38616;BME280;24370;51.986;4.666;2023-04-16T02:51:57;102409.13;;;14.76;66.25
38616;BME280;24370;51.986;4.666;2023-04-16T02:54:22;102422.25;;;13.56;72.82
38616;BME280;24370;51.986;4.666;2023-04-16T02:56:47;102410.91;;;14.17;67.82
38616;BME280;24370;51.986;4.666;2023-04-16T02:59:13;102408.25;;;14.56;67.51
38616;BME280;24370;51.986;4.666;2023-04-16T03:01:38;102417.00;;;13.62;72.41
38616;BME280;24370;51.986;4.666;2023-04-16T03:04:04;102408.97;;;13.30;74.17
38616;BME280;24370;51.986;4.666;2023-04-16T03:06:29;102408.22;;;13.51;72.82
38616;BME280;24370;51.986;4.666;2023-04-16T03:08:55;102412.44;;;13.22;75.98
38616;BME280;24370;51.986;4.666;2023-04-16T03:11:21;102403.91;;;14.39;71.20
38616;BME280;24370;51.986;4.666;2023-04-16T03:13:47;102417.03;;;13.90;73.26
38616;BME280;24370;51.986;4.666;2023-04-16T03:16:13;102411.78;;;14.02;72.66
38616;BME280;24370;51.986;4.666;2023-04-16T03:18:38;102418.47;;;12.98;80.40
38616;BME280;24370;51.986;4.666;2023-04-16T03:21:04;102418.56;;;13.14;80.03
38616;BME280;24370;51.986;4.666;2023-04-16T03:23:29;102422.88;;;13.02;80.54
38616;BME280;24370;51.986;4.666;2023-04-16T03:25:54;102426.69;;;13.89;75.96
38616;BME280;24370;51.986;4.666;2023-04-16T03:28:20;102423.84;;;13.32;77.08
38616;BME280;24370;51.986;4.666;2023-04-16T03:30:50;102412.44;;;13.18;77.78
38616;BME280;24370;51.986;4.666;2023-04-16T03:33:16;102408.97;;;13.25;75.58
38616;BME280;24370;51.986;4.666;2023-04-16T03:35:41;102420.56;;;14.20;74.02
38616;BME280;24370;51.986;4.666;2023-04-16T03:38:07;102411.75;;;14.84;68.92
38616;BME280;24370;51.986;4.666;2023-04-16T03:40:32;102407.28;;;15.09;66.14
38616;BME280;24370;51.986;4.666;2023-04-16T03:42:57;102415.28;;;14.54;70.89
38616;BME280;24370;51.986;4.666;2023-04-16T03:45:23;102413.53;;;14.50;69.10
38616;BME280;24370;51.986;4.666;2023-04-16T03:47:48;102417.88;;;14.86;66.94
38616;BME280;24370;51.986;4.666;2023-04-16T03:50:17;102419.72;;;14.19;71.33
38616;BME280;24370;51.986;4.666;2023-04-16T03:52:43;102413.47;;;14.93;68.39
38616;BME280;24370;51.986;4.666;2023-04-16T03:55:09;102417.06;;;14.12;69.75
38616;BME280;24370;51.986;4.666;2023-04-16T03:57:34;102420.50;;;13.70;74.30
38616;BME280;24370;51.986;4.666;2023-04-16T04:00:00;102420.56;;;14.29;71.78
38616;BME280;24370;51.986;4.666;2023-04-16T04:02:25;102420.44;;;13.49;72.74
38616;BME280;24370;51.986;4.666;2023-04-16T04:04:51;102413.53;;;14.06;73.13
38616;BME280;24370;51.986;4.666;2023-04-16T04:07:16;102419.69;;;14.07;72.56
38616;BME280;24370;51.986;4.666;2023-04-16T04:09:44;102423.97;;;13.51;72.90
38616;BME280;24370;51.986;4.666;2023-04-16T04:12:09;102420.56;;;13.95;73.78
38616;BME280;24370;51.986;4.666;2023-04-16T04:14:35;102423.13;;;13.70;77.73
38616;BME280;24370;51.986;4.666;2023-04-16T04:17:07;102429.88;;;13.05;79.12
38616;BME280;24370;51.986;4.666;2023-04-16T04:19:33;102417.06;;;14.05;76.32
38616;BME280;24370;51.986;4.666;2023-04-16T04:21:58;102420.56;;;14.35;73.56
38616;BME280;24370;51.986;4.666;2023-04-16T04:24:24;102417.00;;;14.86;69.93
38616;BME280;24370;51.986;4.666;2023-04-16T04:26:50;102420.59;;;14.38;70.39
38616;BME280;24370;51.986;4.666;2023-04-16T04:29:15;102420.53;;;14.79;69.07
38616;BME280;24370;51.986;4.666;2023-04-16T04:31:40;102426.69;;;14.51;70.89
38616;BME280;24370;51.986;4.666;2023-04-16T04:34:06;102423.13;;;14.97;68.10
38616;BME280;24370;51.986;4.666;2023-04-16T04:36:31;102430.22;;;14.46;70.10
38616;BME280;24370;51.986;4.666;2023-04-16T04:38:57;102425.78;;;13.77;73.90
38616;BME280;24370;51.986;4.666;2023-04-16T04:41:23;102434.59;;;14.53;72.10
38616;BME280;24370;51.986;4.666;2023-04-16T04:43:48;102425.78;;;14.60;71.36
38616;BME280;24370;51.986;4.666;2023-04-16T04:46:13;102433.72;;;14.14;71.16
38616;BME280;24370;51.986;4.666;2023-04-16T04:48:39;102427.56;;;14.83;67.93
38616;BME280;24370;51.986;4.666;2023-04-16T04:51:04;102428.34;;;15.06;67.67
38616;BME280;24370;51.986;4.666;2023-04-16T04:53:30;102419.66;;;14.52;70.62
38616;BME280;24370;51.986;4.666;2023-04-16T04:55:55;102430.22;;;14.69;67.55
38616;BME280;24370;51.986;4.666;2023-04-16T04:58:21;102428.41;;;14.91;66.08
38616;BME280;24370;51.986;4.666;2023-04-16T05:00:46;102434.56;;;14.78;69.00
38616;BME280;24370;51.986;4.666;2023-04-16T05:03:11;102433.69;;;13.86;74.91
38616;BME280;24370;51.986;4.666;2023-04-16T05:05:40;102441.63;;;14.15;71.95
38616;BME280;24370;51.986;4.666;2023-04-16T05:08:05;102431.97;;;14.64;66.50
38616;BME280;24370;51.986;4.666;2023-04-16T05:10:31;102431.84;;;15.05;68.62
38616;BME280;24370;51.986;4.666;2023-04-16T05:12:56;102433.72;;;14.66;67.73
38616;BME280;24370;51.986;4.666;2023-04-16T05:15:22;102434.56;;;14.96;65.74
38616;BME280;24370;51.986;4.666;2023-04-16T05:17:47;102437.94;;;15.32;63.02
38616;BME280;24370;51.986;4.666;2023-04-16T05:20:13;102436.25;;;15.14;62.74
38616;BME280;24370;51.986;4.666;2023-04-16T05:22:38;102449.44;;;13.86;71.70
38616;BME280;24370;51.986;4.666;2023-04-16T05:25:04;102455.59;;;13.91;71.30
38616;BME280;24370;51.986;4.666;2023-04-16T05:27:29;102445.13;;;14.65;66.14
38616;BME280;24370;51.986;4.666;2023-04-16T05:29:55;102436.28;;;15.02;67.01
38616;BME280;24370;51.986;4.666;2023-04-16T05:32:20;102441.41;;;15.37;64.51
38616;BME280;24370;51.986;4.666;2023-04-16T05:34:46;102447.63;;;15.24;62.65
38616;BME280;24370;51.986;4.666;2023-04-16T05:37:11;102453.44;;;15.88;60.87
38616;BME280;24370;51.986;4.666;2023-04-16T05:39:36;102451.22;;;14.95;62.41
38616;BME280;24370;51.986;4.666;2023-04-16T05:42:02;102461.72;;;15.00;65.86
38616;BME280;24370;51.986;4.666;2023-04-16T05:44:27;102462.59;;;15.03;66.63
38616;BME280;24370;51.986;4.666;2023-04-16T05:46:53;102467.91;;;14.32;68.49
38616;BME280;24370;51.986;4.666;2023-04-16T05:49:18;102465.28;;;14.41;70.44
38616;BME280;24370;51.986;4.666;2023-04-16T05:51:44;102467.03;;;14.50;69.35
38616;BME280;24370;51.986;4.666;2023-04-16T05:54:09;102463.50;;;14.56;67.83
38616;BME280;24370;51.986;4.666;2023-04-16T05:56:35;102475.78;;;14.12;70.75
38616;BME280;24370;51.986;4.666;2023-04-16T05:59:00;102462.66;;;14.79;67.65
38616;BME280;24370;51.986;4.666;2023-04-16T06:01:25;102466.13;;;14.00;71.55
38616;BME280;24370;51.986;4.666;2023-04-16T06:03:51;102474.88;;;13.84;71.84
38616;BME280;24370;51.986;4.666;2023-04-16T06:06:16;102474.84;;;13.71;74.08
38616;BME280;24370;51.986;4.666;2023-04-16T06:08:41;102468.66;;;15.27;66.61
38616;BME280;24370;51.986;4.666;2023-04-16T06:11:07;102476.63;;;15.12;65.50
38616;BME280;24370;51.986;4.666;2023-04-16T06:13:32;102469.53;;;15.32;64.73
38616;BME280;24370;51.986;4.666;2023-04-16T06:15:57;102478.44;;;14.29;68.69
38616;BME280;24370;51.986;4.666;2023-04-16T06:18:23;102472.25;;;15.03;65.24
38616;BME280;24370;51.986;4.666;2023-04-16T06:20:48;102473.75;;;15.70;62.53
38616;BME280;24370;51.986;4.666;2023-04-16T06:23:14;102469.47;;;15.48;64.38
38616;BME280;24370;51.986;4.666;2023-04-16T06:25:39;102473.88;;;15.39;62.86
38616;BME280;24370;51.986;4.666;2023-04-16T06:28:05;102484.59;;;14.79;67.84
38616;BME280;24370;51.986;4.666;2023-04-16T06:30:31;102487.25;;;14.71;68.67
38616;BME280;24370;51.986;4.666;2023-04-16T06:32:56;102494.22;;;14.35;69.77
38616;BME280;24370;51.986;4.666;2023-04-16T06:35:21;102488.94;;;14.60;67.53
38616;BME280;24370;51.986;4.666;2023-04-16T06:37:47;102485.47;;;14.92;67.29
38616;BME280;24370;51.986;4.666;2023-04-16T06:40:12;102497.72;;;14.37;66.37
38616;BME280;24370;51.986;4.666;2023-04-16T06:42:38;102491.56;;;15.13;66.92
38616;BME280;24370;51.986;4.666;2023-04-16T06:45:04;102501.25;;;14.73;69.43
38616;BME280;24370;51.986;4.666;2023-04-16T06:47:30;102496.84;;;14.85;66.82
38616;BME280;24370;51.986;4.666;2023-04-16T06:49:55;102501.25;;;14.61;68.83
38616;BME280;24370;51.986;4.666;2023-04-16T06:52:20;102490.56;;;15.44;65.66
38616;BME280;24370;51.986;4.666;2023-04-16T06:54:46;102489.81;;;14.93;64.67
38616;BME280;24370;51.986;4.666;2023-04-16T06:57:12;102504.72;;;14.97;64.93
38616;BME280;24370;51.986;4.666;2023-04-16T06:59:37;102494.06;;;15.50;65.77
38616;BME280;24370;51.986;4.666;2023-04-16T07:02:04;102513.53;;;14.96;64.71
38616;BME280;24370;51.986;4.666;2023-04-16T07:04:29;102502.75;;;15.70;62.32
38616;BME280;24370;51.986;4.666;2023-04-16T07:06:55;102508.84;;;15.77;62.29
38616;BME280;24370;51.986;4.666;2023-04-16T07:09:20;102501.59;;;16.19;60.17
38616;BME280;24370;51.986;4.666;2023-04-16T07:11:45;102508.19;;;15.24;66.87
38616;BME280;24370;51.986;4.666;2023-04-16T07:14:11;102509.78;;;15.70;61.53
38616;BME280;24370;51.986;4.666;2023-04-16T07:16:36;102506.16;;;15.94;60.80
38616;BME280;24370;51.986;4.666;2023-04-16T07:19:02;102511.25;;;16.22;59.28
38616;BME280;24370;51.986;4.666;2023-04-16T07:21:28;102524.00;;;14.19;69.59
38616;BME280;24370;51.986;4.666;2023-04-16T07:23:53;102515.25;;;14.48;68.86
38616;BME280;24370;51.986;4.666;2023-04-16T07:26:18;102522.28;;;14.98;68.64
38616;BME280;24370;51.986;4.666;2023-04-16T07:28:44;102516.19;;;14.76;67.28
38616;BME280;24370;51.986;4.666;2023-04-16T07:31:09;102524.00;;;15.27;65.13
38616;BME280;24370;51.986;4.666;2023-04-16T07:33:34;102516.06;;;15.29;63.50
38616;BME280;24370;51.986;4.666;2023-04-16T07:36:00;102518.78;;;15.08;67.34
38616;BME280;24370;51.986;4.666;2023-04-16T07:38:25;102520.47;;;15.28;65.51
38616;BME280;24370;51.986;4.666;2023-04-16T07:40:51;102520.31;;;15.71;64.49
38616;BME280;24370;51.986;4.666;2023-04-16T07:43:16;102519.69;;;14.84;68.34
38616;BME280;24370;51.986;4.666;2023-04-16T07:45:41;102520.31;;;15.68;63.96
38616;BME280;24370;51.986;4.666;2023-04-16T07:48:07;102521.13;;;15.95;64.03
38616;BME280;24370;51.986;4.666;2023-04-16T07:50:32;102526.66;;;16.77;58.80
38616;BME280;24370;51.986;4.666;2023-04-16T07:52:57;102525.69;;;15.50;63.20
38616;BME280;24370;51.986;4.666;2023-04-16T07:55:23;102541.63;;;14.88;67.43
38616;BME280;24370;51.986;4.666;2023-04-16T07:57:48;102531.72;;;15.73;62.00
38616;BME280;24370;51.986;4.666;2023-04-16T08:00:13;102546.84;;;14.45;67.89
38616;BME280;24370;51.986;4.666;2023-04-16T08:02:39;102541.63;;;14.68;67.88
38616;BME280;24370;51.986;4.666;2023-04-16T08:05:05;102539.81;;;15.24;68.18
38616;BME280;24370;51.986;4.666;2023-04-16T08:07:31;102545.09;;;15.21;65.51
38616;BME280;24370;51.986;4.666;2023-04-16T08:09:56;102543.28;;;15.35;66.60
38616;BME280;24370;51.986;4.666;2023-04-16T08:12:22;102551.28;;;14.86;67.13
38616;BME280;24370;51.986;4.666;2023-04-16T08:14:47;102558.75;;;16.22;60.90
38616;BME280;24370;51.986;4.666;2023-04-16T08:17:16;102559.06;;;15.44;62.80
38616;BME280;24370;51.986;4.666;2023-04-16T08:19:42;102560.75;;;15.70;64.12
38616;BME280;24370;51.986;4.666;2023-04-16T08:22:09;102566.94;;;15.57;62.65
38616;BME280;24370;51.986;4.666;2023-04-16T08:24:34;102561.00;;;16.77;58.02
38616;BME280;24370;51.986;4.666;2023-04-16T08:27:00;102567.81;;;15.56;62.33
38616;BME280;24370;51.986;4.666;2023-04-16T08:29:25;102578.41;;;14.41;68.85
38616;BME280;24370;51.986;4.666;2023-04-16T08:31:54;102566.81;;;15.89;64.80
38616;BME280;24370;51.986;4.666;2023-04-16T08:34:19;102583.66;;;14.35;68.24
38616;BME280;24370;51.986;4.666;2023-04-16T08:36:45;102571.16;;;16.01;63.14
38616;BME280;24370;51.986;4.666;2023-04-16T08:39:10;102569.09;;;16.50;59.15
38616;BME280;24370;51.986;4.666;2023-04-16T08:41:37;102571.78;;;17.48;55.17
38616;BME280;24370;51.986;4.666;2023-04-16T08:44:07;102572.75;;;17.37;55.54
38616;BME280;24370;51.986;4.666;2023-04-16T08:46:35;102567.38;;;16.49;58.95
38616;BME280;24370;51.986;4.666;2023-04-16T08:49:01;102574.34;;;16.56;59.85
38616;BME280;24370;51.986;4.666;2023-04-16T08:51:33;102577.56;;;16.98;57.82
38616;BME280;24370;51.986;4.666;2023-04-16T08:54:02;102574.94;;;16.93;57.98
38616;BME280;24370;51.986;4.666;2023-04-16T08:56:30;102584.53;;;17.05;56.40
38616;BME280;24370;51.986;4.666;2023-04-16T08:58:56;102596.88;;;14.97;66.41
38616;BME280;24370;51.986;4.666;2023-04-16T09:01:23;102586.69;;;16.57;59.42
38616;BME280;24370;51.986;4.666;2023-04-16T09:03:49;102588.50;;;16.45;58.99
38616;BME280;24370;51.986;4.666;2023-04-16T09:06:15;102596.00;;;14.76;66.39
38616;BME280;24370;51.986;4.666;2023-04-16T09:08:44;102587.81;;;16.16;62.90
38616;BME280;24370;51.986;4.666;2023-04-16T09:11:12;102588.28;;;16.72;60.35
38616;BME280;24370;51.986;4.666;2023-04-16T09:13:38;102585.78;;;16.56;59.61
38616;BME280;24370;51.986;4.666;2023-04-16T09:16:06;102588.38;;;16.64;59.16
38616;BME280;24370;51.986;4.666;2023-04-16T09:18:31;102588.91;;;17.89;54.24
38616;BME280;24370;51.986;4.666;2023-04-16T09:20:57;102587.00;;;17.22;55.88
38616;BME280;24370;51.986;4.666;2023-04-16T09:23:22;102591.69;;;16.88;59.52
38616;BME280;24370;51.986;4.666;2023-04-16T09:25:49;102592.41;;;15.58;64.46
38616;BME280;24370;51.986;4.666;2023-04-16T09:31:15;102601.06;;;17.26;58.43
38616;BME280;24370;51.986;4.666;2023-04-16T09:33:42;102602.97;;;17.15;57.73
38616;BME280;24370;51.986;4.666;2023-04-16T09:36:08;102596.06;;;17.80;54.98
38616;BME280;24370;51.986;4.666;2023-04-16T09:38:47;102601.38;;;17.77;54.87
38616;BME280;24370;51.986;4.666;2023-04-16T09:41:14;102604.38;;;16.39;59.11
38616;BME280;24370;51.986;4.666;2023-04-16T09:46:24;102612.50;;;17.28;58.00
38616;BME280;24370;51.986;4.666;2023-04-16T09:48:49;102609.72;;;16.27;58.45
38616;BME280;24370;51.986;4.666;2023-04-16T09:51:15;102613.13;;;16.43;60.86
38616;BME280;24370;51.986;4.666;2023-04-16T09:53:40;102609.34;;;16.89;57.93
38616;BME280;24370;51.986;4.666;2023-04-16T09:56:06;102617.91;;;17.16;56.38
38616;BME280;24370;51.986;4.666;2023-04-16T09:58:35;102608.59;;;16.63;58.30
38616;BME280;24370;51.986;4.666;2023-04-16T10:01:01;102606.97;;;18.24;53.71
38616;BME280;24370;51.986;4.666;2023-04-16T10:03:31;102615.88;;;17.42;55.46
38616;BME280;24370;51.986;4.666;2023-04-16T10:06:06;102611.50;;;18.14;53.83
38616;BME280;24370;51.986;4.666;2023-04-16T10:08:31;102628.28;;;16.05;59.34
38616;BME280;24370;51.986;4.666;2023-04-16T10:10:57;102622.78;;;16.47;60.44
38616;BME280;24370;51.986;4.666;2023-04-16T10:13:23;102631.09;;;17.20;57.20
38616;BME280;24370;51.986;4.666;2023-04-16T10:15:54;102632.81;;;17.20;55.88
38616;BME280;24370;51.986;4.666;2023-04-16T10:18:21;102640.47;;;17.51;55.69
38616;BME280;24370;51.986;4.666;2023-04-16T10:20:47;102632.28;;;16.74;58.56
38616;BME280;24370;51.986;4.666;2023-04-16T10:23:12;102633.41;;;16.35;58.44
38616;BME280;24370;51.986;4.666;2023-04-16T10:25:39;102630.72;;;16.49;59.90
38616;BME280;24370;51.986;4.666;2023-04-16T10:28:08;102635.91;;;16.64;58.62
38616;BME280;24370;51.986;4.666;2023-04-16T10:30:34;102641.38;;;18.26;53.72
38616;BME280;24370;51.986;4.666;2023-04-16T10:33:02;102642.97;;;17.63;55.58
38616;BME280;24370;51.986;4.666;2023-04-16T10:35:29;102652.19;;;15.31;62.67
38616;BME280;24370;51.986;4.666;2023-04-16T10:38:26;102650.38;;;15.64;64.48
38616;BME280;24370;51.986;4.666;2023-04-16T10:40:59;102646.84;;;15.81;61.82
38616;BME280;24370;51.986;4.666;2023-04-16T10:43:27;102653.81;;;17.38;57.82
38616;BME280;24370;51.986;4.666;2023-04-16T10:45:53;102652.53;;;16.75;59.60
38616;BME280;24370;51.986;4.666;2023-04-16T10:48:18;102642.88;;;17.71;56.29
38616;BME280;24370;51.986;4.666;2023-04-16T10:50:54;102643.09;;;18.27;53.60
38616;BME280;24370;51.986;4.666;2023-04-16T10:53:25;102647.09;;;17.89;54.09
38616;BME280;24370;51.986;4.666;2023-04-16T10:56:09;102649.91;;;16.72;59.50
38616;BME280;24370;51.986;4.666;2023-04-16T10:58:35;102663.84;;;16.96;56.13
38616;BME280;24370;51.986;4.666;2023-04-16T11:01:06;102651.16;;;17.38;55.84
38616;BME280;24370;51.986;4.666;2023-04-16T11:03:35;102640.88;;;18.60;52.38
38616;BME280;24370;51.986;4.666;2023-04-16T11:06:11;102660.72;;;17.50;55.10
38616;BME280;24370;51.986;4.666;2023-04-16T11:08:38;102647.53;;;17.52;55.62
38616;BME280;24370;51.986;4.666;2023-04-16T11:11:04;102655.63;;;15.73;62.51
38616;BME280;24370;51.986;4.666;2023-04-16T11:13:30;102655.63;;;15.73;62.80
38616;BME280;24370;51.986;4.666;2023-04-16T11:15:57;102652.84;;;16.18;58.90
38616;BME280;24370;51.986;4.666;2023-04-16T11:18:23;102641.81;;;17.92;55.27
38616;BME280;24370;51.986;4.666;2023-04-16T11:20:50;102645.22;;;17.13;56.17
38616;BME280;24370;51.986;4.666;2023-04-16T11:23:15;102644.66;;;16.71;57.26
38616;BME280;24370;51.986;4.666;2023-04-16T11:25:41;102648.59;;;17.29;57.18
38616;BME280;24370;51.986;4.666;2023-04-16T11:28:06;102646.25;;;16.95;56.42
38616;BME280;24370;51.986;4.666;2023-04-16T11:30:36;102644.00;;;17.50;54.59
38616;BME280;24370;51.986;4.666;2023-04-16T11:33:03;102638.78;;;17.43;54.21
38616;BME280;24370;51.986;4.666;2023-04-16T11:35:29;102643.59;;;16.96;56.65
38616;BME280;24370;51.986;4.666;2023-04-16T11:37:56;102649.31;;;17.46;54.18
38616;BME280;24370;51.986;4.666;2023-04-16T11:40:22;102645.34;;;17.88;53.63
38616;BME280;24370;51.986;4.666;2023-04-16T11:42:47;102645.41;;;17.81;53.60
38616;BME280;24370;51.986;4.666;2023-04-16T11:45:13;102649.13;;;16.61;56.96
38616;BME280;24370;51.986;4.666;2023-04-16T11:47:49;102643.47;;;17.12;55.70
38616;BME280;24370;51.986;4.666;2023-04-16T11:50:26;102652.97;;;15.97;62.29
38616;BME280;24370;51.986;4.666;2023-04-16T11:52:56;102653.25;;;17.02;57.43
38616;BME280;24370;51.986;4.666;2023-04-16T11:55:22;102644.97;;;17.38;56.42
38616;BME280;24370;51.986;4.666;2023-04-16T11:57:49;102650.38;;;15.70;60.99
38616;BME280;24370;51.986;4.666;2023-04-16T12:00:15;102649.38;;;16.15;61.27
38616;BME280;24370;51.986;4.666;2023-04-16T12:05:24;102648.56;;;17.34;55.41
38616;BME280;24370;51.986;4.666;2023-04-16T12:07:54;102659.06;;;16.06;59.18
38616;BME280;24370;51.986;4.666;2023-04-16T12:10:20;102655.31;;;16.54;57.95
38616;BME280;24370;51.986;4.666;2023-04-16T12:12:45;102649.19;;;16.49;57.82
38616;BME280;24370;51.986;4.666;2023-04-16T12:15:11;102654.66;;;18.21;54.12
38616;BME280;24370;51.986;4.666;2023-04-16T12:17:37;102658.97;;;17.52;55.51
38616;BME280;24370;51.986;4.666;2023-04-16T12:20:08;102663.06;;;16.80;56.22
38616;BME280;24370;51.986;4.666;2023-04-16T12:22:35;102658.69;;;17.77;55.16
38616;BME280;24370;51.986;4.666;2023-04-16T12:25:01;102662.41;;;18.35;53.08
38616;BME280;24370;51.986;4.666;2023-04-16T12:27:50;102664.75;;;17.87;52.88
38616;BME280;24370;51.986;4.666;2023-04-16T12:30:18;102664.25;;;16.31;59.57
38616;BME280;24370;51.986;4.666;2023-04-16T12:32:52;102664.19;;;16.43;57.62
38616;BME280;24370;51.986;4.666;2023-04-16T12:35:32;102658.50;;;17.05;59.00
38616;BME280;24370;51.986;4.666;2023-04-16T12:37:58;102663.91;;;17.85;53.95
38616;BME280;24370;51.986;4.666;2023-04-16T12:40:24;102658.75;;;17.71;54.57
38616;BME280;24370;51.986;4.666;2023-04-16T12:42:49;102663.75;;;18.00;55.23
38616;BME280;24370;51.986;4.666;2023-04-16T12:45:15;102660.28;;;18.62;52.33
38616;BME280;24370;51.986;4.666;2023-04-16T12:47:40;102668.81;;;18.17;53.17
38616;BME280;24370;51.986;4.666;2023-04-16T12:50:06;102666.97;;;18.24;51.91
38616;BME280;24370;51.986;4.666;2023-04-16T12:52:33;102674.81;;;18.33;52.03
38616;BME280;24370;51.986;4.666;2023-04-16T12:54:58;102674.72;;;17.63;54.09